Menlo Park, CA (94025)

12:50 PM PST on February 09, 2016 (GMT -0800)
Allied Arts | | Change Station
CLOSE
Current Station
Personal Weather Station
Location: Menlo Park, CA
Elevation: 70 ft
Nearby Weather Stations

Elev 70 ft 37.44 °N, 122.18 °W | Updated 6 seconds ago

Partly Cloudy
Partly Cloudy
73.7 °F
Feels Like 77 °F
N
0.0
Wind Variable Wind from NE
Gusts 1.0 mph

Today
High -- | Low -- °F
--% Chance of Precip.
Yesterday
High -- | Low -- °F
Precip. -- in
Pressure 30.20 in
Visibility 30.0 miles
Clouds Mostly Cloudy 20000 ft
Heat Index 77 °F
Dew Point 50 °F
Humidity 43%
Rainfall 0.00 in
Snow Depth Not available.
7:04 AM 5:41 PM
New Moon, 2% visible
METAR KPAO 091947Z VRB04KT 30SM BKN200 19/11 A3020
Pressure 30.20 in
Visibility 30.0 miles
Clouds Mostly Cloudy 20000 ft
Heat Index 77 °F
Dew Point 50 °F
Humidity 43%
Rainfall 0.00 in
Snow Depth Not available.
7:04 AM 5:41 PM
New Moon, 2% visible
METAR KPAO 091947Z VRB04KT 30SM BKN200 19/11 A3020

10-Day Weather Forecast

Almanac

Astronomy

Feb. 09, 2016 Rise Set
Actual Time
Civil Twilight
Nautical Twilight
Astronomical Twilight
Moon
Length of Visible Light
Length of Day
Tomorrow will be .
, % of the Moon is Illuminated

Today's Extremes

State Highs State Lows

Community

WunderPhotos

Upload Photos

1,891,683 photos uploaded!

WunderBlog® & News

Nearby

Air Quality

  Air Quality AQ Index Pollutant
Not available.

Snow Depth

Station Depth Elevation

Earthquake Activity

City Distance Mag. Time & Date
Minimum magnitude displayed is 2.5.

Coastal Water Temperatures

Place Temperature

Stations

Nearby Weather Stations

Station Location Temp. Windchill Dew Point Humidity Wind Precip. Elev Updated Type
                   

Watches & Warnings

There are currently no watches in effect.